createdAt,value
2023-04-25T00:05:02.934Z,8.31
2023-04-25T00:15:07.252Z,8.03
2023-04-25T00:25:11.386Z,8.11
2023-04-25T00:35:14.222Z,8.11
2023-04-25T00:45:22.559Z,7.90
2023-04-25T00:55:25.494Z,7.81
2023-04-25T01:05:29.704Z,8.00
2023-04-25T01:15:32.751Z,7.79
2023-04-25T01:25:37.232Z,7.88
2023-04-25T01:35:41.350Z,7.69
2023-04-25T01:45:45.927Z,7.85
2023-04-25T01:55:48.830Z,7.65
2023-04-25T02:05:53.109Z,7.69
2023-04-25T02:15:56.028Z,7.71
2023-04-25T02:26:00.801Z,7.75
2023-04-25T02:36:04.369Z,7.68
2023-04-25T02:46:09.233Z,7.61
2023-04-25T02:56:12.171Z,7.59
2023-04-25T03:06:16.742Z,7.46
2023-04-25T03:16:19.546Z,7.41
2023-04-25T03:26:23.830Z,6.99
2023-04-25T03:36:26.757Z,6.56
2023-04-25T03:46:30.969Z,6.02
2023-04-25T03:56:33.795Z,6.16
2023-04-25T04:06:37.916Z,6.01
2023-04-25T04:16:40.582Z,6.02
2023-04-25T04:26:45.999Z,5.92
2023-04-25T04:36:49.952Z,6.04
2023-04-25T04:46:54.291Z,6.01
2023-04-25T04:56:57.111Z,6.42
2023-04-25T05:07:01.549Z,6.41
2023-04-25T05:17:05.752Z,6.09
2023-04-25T05:27:09.882Z,5.51
2023-04-25T05:37:12.805Z,5.82
2023-04-25T05:47:16.884Z,6.25
2023-04-25T05:57:24.710Z,6.65
2023-04-25T06:07:28.896Z,6.83
2023-04-25T06:17:31.840Z,6.81
2023-04-25T06:27:36.328Z,7.42
2023-04-25T06:37:39.076Z,7.82
2023-04-25T06:47:43.175Z,7.60
2023-04-25T06:57:45.938Z,7.67
2023-04-25T07:07:50.126Z,7.72
2023-04-25T07:17:52.905Z,7.81
2023-04-25T07:27:57.126Z,8.68
2023-04-25T07:38:00.208Z,9.66
2023-04-25T07:48:05.219Z,9.10
2023-04-25T07:58:08.094Z,8.30
2023-04-25T08:08:12.214Z,7.52
2023-04-25T08:18:17.039Z,8.19
2023-04-25T08:28:22.185Z,8.90
2023-04-25T08:38:24.962Z,9.57
2023-04-25T08:48:29.782Z,9.92
2023-04-25T08:58:34.040Z,9.90
2023-04-25T09:08:38.581Z,10.44
2023-04-25T09:29:07.691Z,8.50
2023-04-25T09:39:16.151Z,9.96
2023-04-25T09:49:22.217Z,9.75
2023-04-25T09:59:25.807Z,9.67
2023-04-25T10:09:33.331Z,10.87
2023-04-25T10:19:36.365Z,8.77
2023-04-25T10:29:40.570Z,10.39
2023-04-25T10:39:44.723Z,11.75
2023-04-25T10:49:52.924Z,11.69
2023-04-25T10:59:55.793Z,12.07
2023-04-25T11:10:02.942Z,12.08
2023-04-25T11:20:12.123Z,12.63
2023-04-25T11:30:17.662Z,15.47
2023-04-25T11:40:20.473Z,12.97
2023-04-25T11:50:24.879Z,15.92
2023-04-25T12:00:28.462Z,20.75
2023-04-25T12:10:32.717Z,23.84
2023-04-25T12:20:35.855Z,15.62
2023-04-25T12:30:59.468Z,20.19
2023-04-25T12:41:02.346Z,22.08
2023-04-25T12:51:06.631Z,19.08
2023-04-25T13:01:09.460Z,12.04
2023-04-25T13:11:15.756Z,10.56
2023-04-25T13:21:18.810Z,14.07
2023-04-25T13:31:23.025Z,16.81
2023-04-25T13:41:25.826Z,19.23
2023-04-25T13:51:30.987Z,16.86
2023-04-25T14:01:36.898Z,16.03
2023-04-25T14:11:41.217Z,11.78
2023-04-25T14:21:44.048Z,11.99
2023-04-25T14:31:48.327Z,14.97
2023-04-25T14:41:51.327Z,12.79
2023-04-25T14:51:55.691Z,13.38
2023-04-25T15:01:59.802Z,16.08
2023-04-25T15:12:04.277Z,13.64
2023-04-25T15:22:07.803Z,12.51
2023-04-25T15:32:11.956Z,13.39
2023-04-25T15:42:14.797Z,13.21
2023-04-25T15:52:21.928Z,12.91
2023-04-25T16:02:25.073Z,11.00
2023-04-25T16:12:29.495Z,11.73
2023-04-25T16:22:33.059Z,11.96
2023-04-25T16:32:37.973Z,11.84
2023-04-25T16:42:41.580Z,11.61
2023-04-25T16:52:45.744Z,11.00
2023-04-25T17:02:48.918Z,11.07
2023-04-25T17:12:53.581Z,10.98
2023-04-25T17:22:57.158Z,10.45
2023-04-25T17:33:01.670Z,10.06
2023-04-25T17:43:04.631Z,9.72
2023-04-25T17:53:09.053Z,9.30
2023-04-25T18:03:12.058Z,7.99
2023-04-25T18:13:17.324Z,7.73
2023-04-25T18:23:20.212Z,8.02
2023-04-25T18:33:24.536Z,8.02
2023-04-25T18:43:27.272Z,7.58
2023-04-25T18:53:31.523Z,7.53
2023-04-25T19:03:34.479Z,7.42
2023-04-25T19:13:38.663Z,6.78
2023-04-25T19:23:41.735Z,6.14
2023-04-25T19:33:46.824Z,5.94
2023-04-25T19:43:51.154Z,6.06
2023-04-25T19:53:56.047Z,6.02
2023-04-25T20:03:58.888Z,6.00
2023-04-25T20:14:03.189Z,5.75
2023-04-25T20:24:06.964Z,5.78
2023-04-25T20:34:11.166Z,5.60
2023-04-25T20:44:14.143Z,5.89
2023-04-25T20:54:18.217Z,5.91
2023-04-25T21:04:21.411Z,5.74
2023-04-25T21:14:26.127Z,5.47
2023-04-25T21:24:30.982Z,5.61
2023-04-25T21:34:35.249Z,5.51
2023-04-25T21:44:38.174Z,5.47
2023-04-25T21:54:42.346Z,5.53
2023-04-25T22:04:47.264Z,5.35
2023-04-25T22:14:51.576Z,5.03
2023-04-25T22:24:54.828Z,4.92
2023-04-25T22:34:59.039Z,4.82
2023-04-25T22:45:01.968Z,4.88
2023-04-25T22:55:06.999Z,5.06
2023-04-25T23:05:10.796Z,5.25
2023-04-25T23:15:15.075Z,5.21
2023-04-25T23:25:18.189Z,5.26
2023-04-25T23:35:22.479Z,5.06
2023-04-25T23:45:25.159Z,4.94
2023-04-25T23:55:29.388Z,5.05
